< < Back
Terminal Aerodrome Forecast


Current Version              Previous Versions:   1  2  3  4  5  6  7  8  9  

Terminal Aerodrome Forecast

466
FTUS42 KGSP 310503 AAA
TAFAND
TAF AMD
KAND 310503Z 3105/3124 04005KT P6SM FEW070
     FM311400 05009KT P6SM SCT060
     FM311800 04005KT P6SM FEW060=



Latest METAR

933
SAUS70 KWBC 311100 RRA
MTRAND
METAR KAND 311056Z AUTO 07008KT 10SM BKN055 OVC070 25/19 A2997 RMK AO2
SLP138 T02500194


USA.gov is the U.S. government's official web portal to all federal, state and local government web resources and services.